Creek Data

    Home     View Charts     View Raw Data     Messages

ID Distance Battery Voltage Battery Current Internal Temp Internal Humidity External Temp Solar Input rssi snr Time Stamp Record
34855 15.2 4.09 54 42 39 44 4.5 -83 7 03/13/2025 08:30 AM 16599
34854 15.2 4.02 20 41 39 42 4.5 -82 7 03/13/2025 08:15 AM 16598
34853 15.2 4.02 5 41 40 42 4.5 -81 5 03/13/2025 08:00 AM 16597
34852 15.2 4.01 0 40 40 41 4.5 -82 7 03/13/2025 07:45 AM 16596
34851 15.2 3.94 -24 40 40 41 4.5 -81 8 03/13/2025 07:30 AM 16595
34850 15.2 3.95 -5 41 40 41 1.3 -81 7 03/13/2025 07:15 AM 16594
34849 15.2 3.95 -5 42 40 42 0 -81 8 03/13/2025 07:00 AM 16593
34848 15.2 3.95 -5 42 40 43 0 -80 8 03/13/2025 06:45 AM 16592
34847 15.2 3.95 -5 42 40 43 0 -79 7 03/13/2025 06:30 AM 16591
34846 15.2 4.01 -5 43 40 44 0.1 -80 8 03/13/2025 06:15 AM 16590
34845 15.2 4.01 -5 43 39 44 0.1 -79 7 03/13/2025 06:00 AM 16589
34844 15.2 3.95 -5 43 39 44 0 -80 8 03/13/2025 05:45 AM 16588
34843 15.2 3.96 -5 43 39 44 0 -79 7 03/13/2025 05:30 AM 16587
34842 15.2 4.01 -5 43 39 44 0 -80 7 03/13/2025 05:15 AM 16586
34841 15.2 3.96 -5 43 39 45 0 -81 6 03/13/2025 04:45 AM 16584
34840 15.3 3.96 -5 43 39 44 0.1 -80 7 03/13/2025 04:30 AM 16583
34839 15.2 3.96 -5 42 39 44 0 -79 8 03/13/2025 04:00 AM 16581
34838 15.3 3.96 -5 42 40 43 0.1 -80 7 03/13/2025 03:45 AM 16580
34837 0.0 3.96 -5 41 40 42 0 -80 7 03/13/2025 03:31 AM 16579
34836 0.0 4.01 -5 41 40 42 0 -81 7 03/13/2025 03:15 AM 16578
34835 0.0 4.02 -5 42 40 43 0.1 -80 7 03/13/2025 03:00 AM 16577
34834 0.0 3.96 -35 42 40 43 0 -80 8 03/13/2025 02:45 AM 16576
34833 0.0 4.02 -5 42 40 43 0 -81 8 03/13/2025 02:30 AM 16575
34832 0.0 3.96 -5 42 40 43 0 -80 8 03/13/2025 02:16 AM 16574
34831 0.0 3.97 -5 43 40 44 0 -81 7 03/13/2025 02:00 AM 16573